createdAt,value
2022-11-17T00:01:08.103Z,92.12
2022-11-17T00:03:35.161Z,91.95
2022-11-17T00:06:05.570Z,92.02
2022-11-17T00:08:32.283Z,92.02
2022-11-17T00:11:02.937Z,92.36
2022-11-17T00:13:48.628Z,92.33
2022-11-17T00:16:19.847Z,92.30
2022-11-17T00:19:04.649Z,92.34
2022-11-17T00:21:31.649Z,92.57
2022-11-17T00:23:58.181Z,92.78
2022-11-17T00:26:30.038Z,92.81
2022-11-17T00:28:58.464Z,92.91
2022-11-17T00:31:45.082Z,92.93
2022-11-17T00:34:15.058Z,92.93
2022-11-17T00:36:46.992Z,93.19
2022-11-17T00:39:14.596Z,93.28
2022-11-17T00:41:41.391Z,93.21
2022-11-17T00:44:08.534Z,93.40
2022-11-17T00:46:37.083Z,93.42
2022-11-17T00:49:05.550Z,93.66
2022-11-17T00:51:32.196Z,93.61
2022-11-17T00:53:58.592Z,93.95
2022-11-17T00:56:25.573Z,93.71
2022-11-17T00:58:53.474Z,94.02
2022-11-17T01:01:20.341Z,93.79
2022-11-17T01:03:47.471Z,93.55
2022-11-17T01:06:17.042Z,93.69
2022-11-17T01:08:43.520Z,93.85
2022-11-17T01:11:13.949Z,94.19
2022-11-17T01:13:41.438Z,93.78
2022-11-17T01:16:15.239Z,93.49
2022-11-17T01:18:43.121Z,93.88
2022-11-17T01:21:21.695Z,94.21
2022-11-17T01:23:50.734Z,94.05
2022-11-17T01:26:20.017Z,94.05
2022-11-17T01:28:47.815Z,94.00
2022-11-17T01:31:16.664Z,93.97
2022-11-17T01:33:43.295Z,94.02
2022-11-17T01:36:19.732Z,94.18
2022-11-17T01:38:46.114Z,94.12
2022-11-17T01:41:19.914Z,94.14
2022-11-17T01:43:57.882Z,94.45
2022-11-17T01:46:35.225Z,94.38
2022-11-17T01:49:26.481Z,94.53
2022-11-17T01:51:57.598Z,94.44
2022-11-17T01:54:27.669Z,94.62
2022-11-17T01:56:59.117Z,94.70
2022-11-17T01:59:32.678Z,94.55
2022-11-17T02:01:59.305Z,94.71
2022-11-17T02:04:42.134Z,94.63
2022-11-17T02:07:24.531Z,94.94
2022-11-17T02:09:52.783Z,94.77
2022-11-17T02:12:21.753Z,94.83
2022-11-17T02:14:52.843Z,94.65
2022-11-17T02:17:21.391Z,94.95
2022-11-17T02:20:01.088Z,94.91
2022-11-17T02:22:53.374Z,94.73
2022-11-17T02:25:44.637Z,94.79
2022-11-17T02:28:17.902Z,94.66
2022-11-17T02:31:18.054Z,94.54
2022-11-17T02:34:16.688Z,94.51
2022-11-17T02:36:56.846Z,94.79
2022-11-17T02:39:43.991Z,94.63
2022-11-17T02:42:17.399Z,94.59
2022-11-17T02:44:57.423Z,94.61
2022-11-17T02:47:28.293Z,94.62
2022-11-17T02:49:59.549Z,94.45
2022-11-17T02:52:29.690Z,94.39
2022-11-17T02:55:00.866Z,94.61
2022-11-17T02:57:32.436Z,94.47
2022-11-17T03:00:11.832Z,94.67
2022-11-17T03:03:10.125Z,94.26
2022-11-17T03:05:39.354Z,94.56
2022-11-17T03:08:27.618Z,94.53
2022-11-17T03:10:59.762Z,94.40
2022-11-17T03:13:32.118Z,94.44
2022-11-17T03:16:16.861Z,94.41
2022-11-17T03:18:52.393Z,94.29
2022-11-17T03:21:51.906Z,94.33
2022-11-17T03:24:30.115Z,94.25
2022-11-17T03:27:20.952Z,94.08
2022-11-17T03:29:50.783Z,94.08
2022-11-17T03:32:18.270Z,94.17
2022-11-17T03:34:51.949Z,93.99
2022-11-17T03:37:21.607Z,93.93
2022-11-17T03:39:52.538Z,93.66
2022-11-17T03:42:24.342Z,93.80
2022-11-17T03:44:55.278Z,93.94
2022-11-17T03:47:26.272Z,93.74
2022-11-17T03:50:09.663Z,93.68
2022-11-17T03:52:37.941Z,93.28
2022-11-17T03:55:06.092Z,93.27
2022-11-17T03:57:46.455Z,93.25
2022-11-17T04:00:18.396Z,93.16
2022-11-17T04:02:46.793Z,93.03
2022-11-17T04:05:16.062Z,93.01
2022-11-17T04:07:44.902Z,92.85
2022-11-17T04:10:19.537Z,92.67
2022-11-17T04:13:05.270Z,92.76
2022-11-17T04:15:50.593Z,92.70
2022-11-17T04:18:17.391Z,92.38
2022-11-17T04:20:44.013Z,92.51
2022-11-17T04:23:15.001Z,92.28
2022-11-17T04:26:02.255Z,92.33
2022-11-17T04:28:39.024Z,92.20
2022-11-17T04:31:26.257Z,92.01
2022-11-17T04:33:55.504Z,92.13
2022-11-17T04:36:24.882Z,92.14
2022-11-17T04:38:53.906Z,91.75
2022-11-17T04:41:40.809Z,91.75
2022-11-17T04:44:08.753Z,91.83
2022-11-17T04:46:36.576Z,91.58
2022-11-17T04:49:04.039Z,92.01
2022-11-17T04:51:32.166Z,91.73
2022-11-17T04:53:58.949Z,91.70
2022-11-17T04:56:26.021Z,91.79
2022-11-17T04:58:52.596Z,91.79
2022-11-17T05:01:22.227Z,91.71
2022-11-17T05:03:56.672Z,91.66
2022-11-17T05:06:24.173Z,91.74
2022-11-17T05:08:50.855Z,91.66
2022-11-17T05:11:36.326Z,91.79
2022-11-17T05:14:03.647Z,91.77
2022-11-17T05:16:48.558Z,92.08
2022-11-17T05:19:20.665Z,92.03
2022-11-17T05:21:47.153Z,91.89
2022-11-17T05:24:14.650Z,91.83
2022-11-17T05:26:42.916Z,92.07
2022-11-17T05:29:11.469Z,92.14
2022-11-17T05:31:38.026Z,92.06
2022-11-17T05:34:06.095Z,92.24
2022-11-17T05:36:33.214Z,92.51
2022-11-17T05:38:59.983Z,92.52
2022-11-17T05:41:27.563Z,92.69
2022-11-17T05:43:54.266Z,92.99
2022-11-17T05:46:21.824Z,93.05
2022-11-17T05:48:52.700Z,93.00
2022-11-17T05:51:21.403Z,93.05
2022-11-17T05:53:48.311Z,93.15
2022-11-17T05:56:29.640Z,93.61
2022-11-17T05:59:12.451Z,93.71
2022-11-17T06:01:52.595Z,93.70
2022-11-17T06:04:19.552Z,93.81
2022-11-17T06:06:47.504Z,94.03
2022-11-17T06:09:14.747Z,93.92
2022-11-17T06:11:41.094Z,93.88
2022-11-17T06:14:07.387Z,94.10
2022-11-17T06:16:39.861Z,93.96
2022-11-17T06:19:15.677Z,94.03
2022-11-17T06:22:09.827Z,94.15
2022-11-17T06:24:28.707Z,94.17
2022-11-17T06:26:55.007Z,94.47
2022-11-17T06:29:21.320Z,94.26
2022-11-17T06:31:47.818Z,94.29
2022-11-17T06:34:14.199Z,94.33
2022-11-17T06:36:40.764Z,94.41
2022-11-17T06:39:07.198Z,94.38
2022-11-17T06:41:33.690Z,94.19
2022-11-17T06:44:00.032Z,94.32
2022-11-17T06:46:37.761Z,94.26
2022-11-17T06:49:08.017Z,94.27
2022-11-17T06:51:35.494Z,94.38
2022-11-17T06:54:01.909Z,94.61
2022-11-17T06:56:28.623Z,94.35
2022-11-17T06:58:56.259Z,94.58
2022-11-17T07:01:22.858Z,94.59
2022-11-17T07:03:49.288Z,94.48
2022-11-17T07:06:16.180Z,94.56
2022-11-17T07:08:42.724Z,94.25
2022-11-17T07:11:11.604Z,94.57
2022-11-17T07:13:38.330Z,94.55
2022-11-17T07:16:10.738Z,94.43
2022-11-17T07:18:38.213Z,94.59
2022-11-17T07:21:06.444Z,94.77
2022-11-17T07:23:34.679Z,94.58
2022-11-17T07:26:01.458Z,94.89
2022-11-17T07:28:28.125Z,94.69
2022-11-17T07:30:55.349Z,94.74
2022-11-17T07:33:22.597Z,94.61
2022-11-17T07:35:49.013Z,94.53
2022-11-17T07:38:15.402Z,94.50
2022-11-17T07:40:42.868Z,94.41
2022-11-17T07:43:09.781Z,94.51
2022-11-17T07:45:36.593Z,94.48
2022-11-17T07:48:04.611Z,94.42
2022-11-17T07:50:31.671Z,94.34
2022-11-17T07:52:58.277Z,94.20
2022-11-17T07:55:25.656Z,94.13
2022-11-17T07:57:56.611Z,94.13
2022-11-17T08:00:23.401Z,93.94
2022-11-17T08:02:49.966Z,93.88
2022-11-17T08:05:17.401Z,93.87
2022-11-17T08:07:45.406Z,93.84
2022-11-17T08:10:12.919Z,93.90
2022-11-17T08:12:39.278Z,93.82
2022-11-17T08:15:06.448Z,93.84
2022-11-17T08:17:32.764Z,93.70
2022-11-17T08:19:59.076Z,93.88
2022-11-17T08:22:25.799Z,93.93
2022-11-17T08:24:52.141Z,93.77
2022-11-17T08:27:18.521Z,93.97
2022-11-17T08:29:44.912Z,93.86
2022-11-17T08:32:11.274Z,93.77
2022-11-17T08:34:46.875Z,93.98
2022-11-17T08:37:13.238Z,93.69
2022-11-17T08:39:39.650Z,93.71
2022-11-17T08:42:05.994Z,93.62
2022-11-17T08:44:34.619Z,93.71
2022-11-17T08:47:01.044Z,93.70
2022-11-17T08:49:27.382Z,93.63
2022-11-17T08:51:53.760Z,93.73
2022-11-17T08:54:20.106Z,93.65
2022-11-17T08:56:47.082Z,93.44
2022-11-17T08:59:13.666Z,93.66
2022-11-17T09:01:40.504Z,93.54
2022-11-17T09:04:06.921Z,93.61
2022-11-17T09:06:33.266Z,93.69
2022-11-17T09:08:59.987Z,93.71
2022-11-17T09:11:26.795Z,93.74
2022-11-17T09:13:53.172Z,93.77
2022-11-17T09:16:19.542Z,93.49
2022-11-17T09:18:46.058Z,93.59
2022-11-17T09:21:15.549Z,93.27
2022-11-17T09:23:42.288Z,93.34
2022-11-17T09:26:11.724Z,93.27
2022-11-17T09:28:38.682Z,93.27
2022-11-17T09:31:07.107Z,92.79
2022-11-17T09:33:33.502Z,93.14
2022-11-17T09:35:59.889Z,92.79
2022-11-17T09:38:26.200Z,92.91
2022-11-17T09:40:54.651Z,92.84
2022-11-17T09:43:30.162Z,92.81
2022-11-17T09:46:09.165Z,92.96
2022-11-17T09:48:42.272Z,92.95
2022-11-17T09:51:14.739Z,92.59
2022-11-17T09:54:17.224Z,92.71
2022-11-17T09:56:46.246Z,92.70
2022-11-17T09:59:15.300Z,92.39
2022-11-17T10:01:42.169Z,92.70
2022-11-17T10:04:12.359Z,92.81
2022-11-17T10:06:42.162Z,92.80
2022-11-17T10:09:25.430Z,92.64
2022-11-17T10:11:54.806Z,92.60
2022-11-17T10:14:22.176Z,92.89
2022-11-17T10:16:56.820Z,92.52
2022-11-17T10:19:29.865Z,92.61
2022-11-17T10:22:20.873Z,92.69
2022-11-17T10:24:58.540Z,92.78
2022-11-17T10:27:34.189Z,92.76
2022-11-17T10:30:06.895Z,92.46
2022-11-17T10:32:54.610Z,92.29
2022-11-17T10:35:32.353Z,92.33
2022-11-17T10:38:00.558Z,92.33
2022-11-17T10:40:48.636Z,92.47
2022-11-17T10:43:16.894Z,92.47
2022-11-17T10:45:52.592Z,92.38
2022-11-17T10:48:22.045Z,92.48
2022-11-17T10:51:21.099Z,92.59
2022-11-17T10:54:17.035Z,92.98
2022-11-17T10:56:47.592Z,92.79
2022-11-17T10:59:19.918Z,92.69
2022-11-17T11:01:50.396Z,92.52
2022-11-17T11:04:32.314Z,92.58
2022-11-17T11:07:10.550Z,92.32
2022-11-17T11:09:48.265Z,92.21
2022-11-17T11:12:41.557Z,92.19
2022-11-17T11:15:16.709Z,92.21
2022-11-17T11:17:43.158Z,92.13
2022-11-17T11:20:14.902Z,92.17
2022-11-17T11:22:45.638Z,92.12
2022-11-17T11:25:23.886Z,92.00
2022-11-17T11:28:09.238Z,92.11
2022-11-17T11:30:59.264Z,91.53
2022-11-17T11:33:35.118Z,91.62
2022-11-17T11:36:19.226Z,91.82
2022-11-17T11:38:56.260Z,92.10
2022-11-17T11:41:36.309Z,92.15
2022-11-17T11:44:03.039Z,92.00
2022-11-17T11:46:38.272Z,91.82
2022-11-17T11:49:21.162Z,91.74
2022-11-17T11:51:49.923Z,91.78
2022-11-17T11:54:50.854Z,91.46
2022-11-17T11:57:22.273Z,91.47
2022-11-17T12:00:13.483Z,91.52
2022-11-17T12:03:22.908Z,91.39
2022-11-17T12:06:32.024Z,91.44
2022-11-17T12:09:10.045Z,91.73
2022-11-17T12:11:58.239Z,91.73
2022-11-17T12:14:24.593Z,91.89
2022-11-17T12:17:02.000Z,91.75
2022-11-17T12:19:57.065Z,92.10
2022-11-17T12:22:29.181Z,91.90
2022-11-17T12:24:57.765Z,92.06
2022-11-17T12:27:33.264Z,92.12
2022-11-17T12:30:00.611Z,92.30
2022-11-17T12:32:48.317Z,92.40
2022-11-17T12:35:24.210Z,92.29
2022-11-17T12:38:22.797Z,92.30
2022-11-17T12:40:52.689Z,92.29
2022-11-17T12:43:21.736Z,92.50
2022-11-17T12:45:54.287Z,92.38
2022-11-17T12:48:33.904Z,92.31
2022-11-17T12:51:10.103Z,92.43
2022-11-17T12:53:48.505Z,92.39
2022-11-17T12:56:32.893Z,92.41
2022-11-17T12:59:07.971Z,92.29
2022-11-17T13:01:50.527Z,92.15
2022-11-17T13:04:36.104Z,92.33
2022-11-17T13:07:08.138Z,92.22
2022-11-17T13:09:36.429Z,92.26
2022-11-17T13:12:05.420Z,92.29
2022-11-17T13:14:35.055Z,92.31
2022-11-17T13:17:02.794Z,92.29
2022-11-17T13:19:33.784Z,92.21
2022-11-17T13:22:01.215Z,92.32
2022-11-17T13:24:36.783Z,92.40
2022-11-17T13:27:08.997Z,92.34
2022-11-17T13:29:35.658Z,92.51
2022-11-17T13:32:21.074Z,92.32
2022-11-17T13:34:53.278Z,92.39
2022-11-17T13:37:22.900Z,92.42
2022-11-17T13:40:01.223Z,92.42
2022-11-17T13:42:32.286Z,92.39
2022-11-17T13:45:02.366Z,92.46
2022-11-17T13:47:48.847Z,92.63
2022-11-17T13:50:41.800Z,92.56
2022-11-17T13:53:11.200Z,92.60
2022-11-17T13:55:44.997Z,92.44
2022-11-17T13:58:32.267Z,92.53
2022-11-17T14:00:58.970Z,92.90
2022-11-17T14:03:34.361Z,92.55
2022-11-17T14:06:01.154Z,92.41
2022-11-17T14:08:31.870Z,92.76
2022-11-17T14:11:07.275Z,92.61
2022-11-17T14:13:45.269Z,92.69
2022-11-17T14:16:22.421Z,92.65
2022-11-17T14:19:01.445Z,92.75
2022-11-17T14:21:29.349Z,92.76
2022-11-17T14:24:06.115Z,92.66
2022-11-17T14:26:33.285Z,92.91
2022-11-17T14:29:02.379Z,92.74
2022-11-17T14:31:30.456Z,92.68
2022-11-17T14:33:57.011Z,92.51
2022-11-17T14:36:23.641Z,92.54
2022-11-17T14:38:49.964Z,92.57
2022-11-17T14:41:18.275Z,92.60
2022-11-17T14:43:44.862Z,92.56
2022-11-17T14:46:22.341Z,92.23
2022-11-17T14:48:49.101Z,92.13
2022-11-17T14:51:16.203Z,92.04
2022-11-17T14:53:46.344Z,91.98
2022-11-17T14:56:16.021Z,92.01
2022-11-17T14:58:42.329Z,91.82
2022-11-17T15:01:17.596Z,91.61
2022-11-17T15:03:44.695Z,91.74
2022-11-17T15:06:18.239Z,91.51
2022-11-17T15:08:46.542Z,91.44
2022-11-17T15:11:17.832Z,91.04
2022-11-17T15:13:44.415Z,91.08
2022-11-17T15:16:11.142Z,90.88
2022-11-17T15:18:38.003Z,90.35
2022-11-17T15:21:09.602Z,89.97
2022-11-17T15:23:38.251Z,89.99
2022-11-17T15:26:06.838Z,89.59
2022-11-17T15:28:33.582Z,89.40
2022-11-17T15:31:08.042Z,89.21
2022-11-17T15:33:34.385Z,89.24
2022-11-17T15:36:02.308Z,89.16
2022-11-17T15:38:29.060Z,88.79
2022-11-17T15:40:55.874Z,88.67
2022-11-17T15:43:26.358Z,88.62
2022-11-17T15:45:53.178Z,88.40
2022-11-17T15:48:19.737Z,88.21
2022-11-17T15:50:46.061Z,88.03
2022-11-17T15:53:12.449Z,88.14
2022-11-17T15:55:39.364Z,87.98
2022-11-17T15:58:05.700Z,87.87
2022-11-17T16:00:33.627Z,88.05
2022-11-17T16:02:59.982Z,87.76
2022-11-17T16:05:26.462Z,87.55
2022-11-17T16:07:52.995Z,87.50
2022-11-17T16:10:19.480Z,88.02
2022-11-17T16:12:45.871Z,87.74
2022-11-17T16:15:12.245Z,87.76
2022-11-17T16:17:38.598Z,87.62
2022-11-17T16:20:05.479Z,87.65
2022-11-17T16:22:31.996Z,87.72
2022-11-17T16:24:58.357Z,87.97
2022-11-17T16:27:24.738Z,87.78
2022-11-17T16:29:51.138Z,87.69
2022-11-17T16:32:17.474Z,87.98
2022-11-17T16:34:48.397Z,88.10
2022-11-17T16:37:15.026Z,87.92
2022-11-17T16:39:41.382Z,87.49
2022-11-17T16:42:07.685Z,87.62
2022-11-17T16:44:34.217Z,87.72
2022-11-17T16:47:00.570Z,87.65
2022-11-17T16:49:27.050Z,87.62
2022-11-17T16:51:53.918Z,87.20
2022-11-17T16:54:20.463Z,87.45
2022-11-17T16:56:46.887Z,87.72
2022-11-17T16:59:14.249Z,87.54
2022-11-17T17:01:41.065Z,87.26
2022-11-17T17:04:09.873Z,87.51
2022-11-17T17:06:39.909Z,87.41
2022-11-17T17:09:08.243Z,87.24
2022-11-17T17:11:35.821Z,86.93
2022-11-17T17:14:06.715Z,87.30
2022-11-17T17:16:35.430Z,87.06
2022-11-17T17:19:04.341Z,87.07
2022-11-17T17:21:31.632Z,86.96
2022-11-17T17:23:58.407Z,86.92
2022-11-17T17:26:27.206Z,87.00
2022-11-17T17:28:55.957Z,86.96
2022-11-17T17:31:23.600Z,87.03
2022-11-17T17:33:51.098Z,86.95
2022-11-17T17:36:19.491Z,86.90
2022-11-17T17:38:51.621Z,87.36
2022-11-17T17:41:22.558Z,87.24
2022-11-17T17:43:55.965Z,87.30
2022-11-17T17:46:22.465Z,87.42
2022-11-17T17:48:48.848Z,87.22
2022-11-17T17:51:19.109Z,87.24
2022-11-17T17:53:49.798Z,87.19
2022-11-17T17:56:18.058Z,87.42
2022-11-17T17:58:46.710Z,87.31
2022-11-17T18:01:17.015Z,87.07
2022-11-17T18:03:48.268Z,86.94
2022-11-17T18:06:17.529Z,87.10
2022-11-17T18:08:44.274Z,87.02
2022-11-17T18:11:13.761Z,87.15
2022-11-17T18:13:42.367Z,86.97
2022-11-17T18:16:11.417Z,87.08
2022-11-17T18:18:38.506Z,86.87
2022-11-17T18:21:08.020Z,87.20
2022-11-17T18:23:35.247Z,86.90
2022-11-17T18:26:12.162Z,87.13
2022-11-17T18:28:39.395Z,87.02
2022-11-17T18:31:07.077Z,86.85
2022-11-17T18:33:34.336Z,86.62
2022-11-17T18:36:05.513Z,86.63
2022-11-17T18:38:33.415Z,86.77
2022-11-17T18:41:11.066Z,86.80
2022-11-17T18:43:38.372Z,86.75
2022-11-17T18:46:13.437Z,86.63
2022-11-17T18:48:42.411Z,86.71
2022-11-17T18:51:20.603Z,86.79
2022-11-17T18:53:51.951Z,86.54
2022-11-17T18:56:23.374Z,87.15
2022-11-17T18:58:50.121Z,86.93
2022-11-17T19:01:22.249Z,86.70
2022-11-17T19:03:51.126Z,86.84
2022-11-17T19:06:18.871Z,86.82
2022-11-17T19:08:46.276Z,86.76
2022-11-17T19:11:12.821Z,87.10
2022-11-17T19:13:40.699Z,86.85
2022-11-17T19:16:12.355Z,86.70
2022-11-17T19:18:39.875Z,86.72
2022-11-17T19:21:08.352Z,86.53
2022-11-17T19:23:36.006Z,86.76
2022-11-17T19:26:04.377Z,86.99
2022-11-17T19:28:30.895Z,86.96
2022-11-17T19:31:05.726Z,87.06
2022-11-17T19:33:33.121Z,87.17
2022-11-17T19:36:04.681Z,86.93
2022-11-17T19:38:35.403Z,87.21
2022-11-17T19:41:10.332Z,87.17
2022-11-17T19:43:43.384Z,87.22
2022-11-17T19:46:14.311Z,87.17
2022-11-17T19:48:41.593Z,87.49
2022-11-17T19:51:20.104Z,87.38
2022-11-17T19:53:47.594Z,87.43
2022-11-17T19:56:14.111Z,87.26
2022-11-17T19:58:41.122Z,87.31
2022-11-17T20:01:12.911Z,87.37
2022-11-17T20:03:40.122Z,87.37
2022-11-17T20:06:08.065Z,87.36
2022-11-17T20:08:34.491Z,87.14
2022-11-17T20:11:08.445Z,87.22
2022-11-17T20:13:35.703Z,87.61
2022-11-17T20:16:08.831Z,87.65
2022-11-17T20:18:38.149Z,87.62
2022-11-17T20:21:05.518Z,87.57
2022-11-17T20:23:36.623Z,87.47
2022-11-17T20:26:13.161Z,87.64
2022-11-17T20:28:39.824Z,87.59
2022-11-17T20:31:21.988Z,87.59
2022-11-17T20:33:48.859Z,87.74
2022-11-17T20:36:18.378Z,87.82
2022-11-17T20:38:45.536Z,87.82
2022-11-17T20:41:11.891Z,87.84
2022-11-17T20:43:38.290Z,87.86
2022-11-17T20:46:04.740Z,87.90
2022-11-17T20:48:33.952Z,88.06
2022-11-17T20:51:05.678Z,87.77
2022-11-17T20:53:32.859Z,87.79
2022-11-17T20:56:00.544Z,87.98
2022-11-17T20:58:28.081Z,87.95
2022-11-17T21:00:55.080Z,87.99
2022-11-17T21:03:22.334Z,88.05
2022-11-17T21:05:58.700Z,88.24
2022-11-17T21:08:27.115Z,88.17
2022-11-17T21:10:57.925Z,88.49
2022-11-17T21:13:25.170Z,88.33
2022-11-17T21:16:20.892Z,88.35
2022-11-17T21:18:48.434Z,88.29
2022-11-17T21:21:16.112Z,88.32
2022-11-17T21:23:43.819Z,88.47
2022-11-17T21:26:13.313Z,88.54
2022-11-17T21:28:40.853Z,88.54
2022-11-17T21:31:14.349Z,88.66
2022-11-17T21:33:41.467Z,88.60
2022-11-17T21:36:11.070Z,88.69
2022-11-17T21:38:37.889Z,88.63
2022-11-17T21:41:11.236Z,88.81
2022-11-17T21:43:39.454Z,88.85
2022-11-17T21:46:08.242Z,88.96
2022-11-17T21:48:36.531Z,88.94
2022-11-17T21:51:04.205Z,89.07
2022-11-17T21:53:31.294Z,89.11
2022-11-17T21:56:02.260Z,89.19
2022-11-17T21:58:29.215Z,89.15
2022-11-17T22:00:55.957Z,89.12
2022-11-17T22:03:23.973Z,89.43
2022-11-17T22:05:52.305Z,89.35
2022-11-17T22:08:18.910Z,89.29
2022-11-17T22:10:45.284Z,89.38
2022-11-17T22:13:12.514Z,89.47
2022-11-17T22:15:39.648Z,89.50
2022-11-17T22:18:06.015Z,89.57
2022-11-17T22:20:33.252Z,89.71
2022-11-17T22:22:59.635Z,89.91
2022-11-17T22:25:44.026Z,90.04
2022-11-17T22:28:11.770Z,90.00
2022-11-17T22:30:38.683Z,90.02
2022-11-17T22:33:05.582Z,89.95
2022-11-17T22:35:31.882Z,90.12
2022-11-17T22:37:58.209Z,90.35
2022-11-17T22:40:24.561Z,90.28
2022-11-17T22:42:52.534Z,90.27
2022-11-17T22:45:19.333Z,90.29
2022-11-17T22:47:46.204Z,90.28
2022-11-17T22:50:12.775Z,90.46
2022-11-17T22:52:39.102Z,90.23
2022-11-17T22:55:05.662Z,90.27
2022-11-17T22:57:32.326Z,90.32
2022-11-17T22:59:58.682Z,90.24
2022-11-17T23:02:25.021Z,90.41
2022-11-17T23:04:51.504Z,90.41
2022-11-17T23:07:17.890Z,90.47
2022-11-17T23:09:44.296Z,90.59
2022-11-17T23:12:10.604Z,90.59
2022-11-17T23:14:37.201Z,90.49
2022-11-17T23:17:03.590Z,90.72
2022-11-17T23:19:29.941Z,90.81
2022-11-17T23:21:56.276Z,91.04
2022-11-17T23:24:22.585Z,91.10
2022-11-17T23:26:48.932Z,91.09
2022-11-17T23:29:15.617Z,91.08
2022-11-17T23:31:42.218Z,91.11
2022-11-17T23:34:10.403Z,91.06
2022-11-17T23:36:36.810Z,91.39
2022-11-17T23:39:03.193Z,91.36
2022-11-17T23:41:29.573Z,91.30
2022-11-17T23:43:55.896Z,91.31
2022-11-17T23:46:24.439Z,91.46
2022-11-17T23:48:50.862Z,91.41
2022-11-17T23:51:22.870Z,91.43
2022-11-17T23:53:51.897Z,91.19
2022-11-17T23:56:21.821Z,91.45
2022-11-17T23:58:49.075Z,91.18
